sensor_id;sensor_type;location;lat;lon;timestamp;pressure;altitude;pressure_sealevel;temperature;humidity
69784;BME280;57054;51.978;4.498;2023-04-04T00:00:13;103069.41;;;4.84;78.16
69784;BME280;57054;51.978;4.498;2023-04-04T00:02:39;103066.81;;;4.82;78.38
69784;BME280;57054;51.978;4.498;2023-04-04T00:05:05;103068.50;;;4.81;78.47
69784;BME280;57054;51.978;4.498;2023-04-04T00:07:32;103066.75;;;4.79;78.36
69784;BME280;57054;51.978;4.498;2023-04-04T00:09:57;103069.31;;;4.77;78.22
69784;BME280;57054;51.978;4.498;2023-04-04T00:12:23;103065.81;;;4.75;78.18
69784;BME280;57054;51.978;4.498;2023-04-04T00:14:49;103064.00;;;4.73;77.82
69784;BME280;57054;51.978;4.498;2023-04-04T00:17:15;103059.63;;;4.69;77.74
69784;BME280;57054;51.978;4.498;2023-04-04T00:19:40;103064.78;;;4.67;77.78
69784;BME280;57054;51.978;4.498;2023-04-04T00:22:06;103063.00;;;4.65;77.80
69784;BME280;57054;51.978;4.498;2023-04-04T00:24:31;103056.03;;;4.62;77.70
69784;BME280;57054;51.978;4.498;2023-04-04T00:26:57;103049.91;;;4.58;77.55
69784;BME280;57054;51.978;4.498;2023-04-04T00:29:23;103047.22;;;4.54;77.47
69784;BME280;57054;51.978;4.498;2023-04-04T00:31:48;103052.38;;;4.52;77.37
69784;BME280;57054;51.978;4.498;2023-04-04T00:34:14;103047.97;;;4.48;77.19
69784;BME280;57054;51.978;4.498;2023-04-04T00:36:39;103047.91;;;4.45;77.39
69784;BME280;57054;51.978;4.498;2023-04-04T00:39:04;103046.97;;;4.41;77.10
69784;BME280;57054;51.978;4.498;2023-04-04T00:41:30;103051.25;;;4.39;77.11
69784;BME280;57054;51.978;4.498;2023-04-04T00:43:55;103039.09;;;4.37;77.36
69784;BME280;57054;51.978;4.498;2023-04-04T00:46:21;103043.41;;;4.36;77.54
69784;BME280;57054;51.978;4.498;2023-04-04T00:48:48;103036.44;;;4.34;77.46
69784;BME280;57054;51.978;4.498;2023-04-04T00:51:13;103039.00;;;4.32;77.59
69784;BME280;57054;51.978;4.498;2023-04-04T00:53:39;103053.69;;;4.32;77.52
69784;BME280;57054;51.978;4.498;2023-04-04T00:56:07;103045.84;;;4.29;77.57
69784;BME280;57054;51.978;4.498;2023-04-04T00:58:33;103041.47;;;4.26;77.57
69784;BME280;57054;51.978;4.498;2023-04-04T01:04:20;103046.50;;;4.20;77.38
69784;BME280;57054;51.978;4.498;2023-04-04T01:06:46;103050.78;;;4.18;77.22
69784;BME280;57054;51.978;4.498;2023-04-04T01:09:11;103036.03;;;4.14;77.31
69784;BME280;57054;51.978;4.498;2023-04-04T01:11:37;103038.53;;;4.11;77.48
69784;BME280;57054;51.978;4.498;2023-04-04T01:14:03;103041.09;;;4.09;77.65
69784;BME280;57054;51.978;4.498;2023-04-04T01:16:28;103043.69;;;4.08;77.92
69784;BME280;57054;51.978;4.498;2023-04-04T01:18:55;103035.00;;;4.07;78.13
69784;BME280;57054;51.978;4.498;2023-04-04T01:21:21;103035.91;;;4.08;78.23
69784;BME280;57054;51.978;4.498;2023-04-04T01:24:01;103027.16;;;4.02;78.16
69784;BME280;57054;51.978;4.498;2023-04-04T01:26:28;103026.25;;;4.02;78.34
69784;BME280;57054;51.978;4.498;2023-04-04T01:28:54;103026.25;;;4.02;78.46
69784;BME280;57054;51.978;4.498;2023-04-04T01:31:24;103033.19;;;4.03;78.70
69784;BME280;57054;51.978;4.498;2023-04-04T01:36:50;103022.78;;;4.01;79.17
69784;BME280;57054;51.978;4.498;2023-04-04T01:39:30;103025.38;;;4.01;79.11
69784;BME280;57054;51.978;4.498;2023-04-04T01:41:58;103027.94;;;4.00;79.07
69784;BME280;57054;51.978;4.498;2023-04-04T01:44:25;103014.94;;;3.97;79.25
69784;BME280;57054;51.978;4.498;2023-04-04T01:46:54;103023.53;;;3.96;79.29
69784;BME280;57054;51.978;4.498;2023-04-04T01:49:20;103022.66;;;3.95;79.28
69784;BME280;57054;51.978;4.498;2023-04-04T01:51:45;103024.31;;;3.92;79.11
69784;BME280;57054;51.978;4.498;2023-04-04T01:54:11;103024.28;;;3.90;79.32
69784;BME280;57054;51.978;4.498;2023-04-04T01:56:36;103026.00;;;3.90;79.46
69784;BME280;57054;51.978;4.498;2023-04-04T01:59:02;103032.88;;;3.89;79.61
69784;BME280;57054;51.978;4.498;2023-04-04T02:01:27;103026.78;;;3.87;79.92
69784;BME280;57054;51.978;4.498;2023-04-04T02:03:53;103022.44;;;3.84;79.77
69784;BME280;57054;51.978;4.498;2023-04-04T02:06:18;103029.34;;;3.84;79.89
69784;BME280;57054;51.978;4.498;2023-04-04T02:08:44;103028.41;;;3.82;79.95
69784;BME280;57054;51.978;4.498;2023-04-04T02:11:09;103030.16;;;3.83;79.90
69784;BME280;57054;51.978;4.498;2023-04-04T02:13:35;103030.09;;;3.80;80.23
69784;BME280;57054;51.978;4.498;2023-04-04T02:16:05;103044.81;;;3.81;80.31
69784;BME280;57054;51.978;4.498;2023-04-04T02:18:30;103030.06;;;3.78;80.51
69784;BME280;57054;51.978;4.498;2023-04-04T02:20:56;103041.31;;;3.79;80.44
69784;BME280;57054;51.978;4.498;2023-04-04T02:23:22;103040.44;;;3.78;80.62
69784;BME280;57054;51.978;4.498;2023-04-04T02:25:49;103037.84;;;3.78;80.70
69784;BME280;57054;51.978;4.498;2023-04-04T02:28:15;103044.72;;;3.78;80.68
69784;BME280;57054;51.978;4.498;2023-04-04T02:30:40;103046.47;;;3.77;80.83
69784;BME280;57054;51.978;4.498;2023-04-04T02:33:06;103049.00;;;3.76;81.05
69784;BME280;57054;51.978;4.498;2023-04-04T02:35:32;103041.19;;;3.74;80.98
69784;BME280;57054;51.978;4.498;2023-04-04T02:37:57;103046.38;;;3.74;81.20
69784;BME280;57054;51.978;4.498;2023-04-04T02:40:23;103037.69;;;3.72;81.08
69784;BME280;57054;51.978;4.498;2023-04-04T02:42:48;103035.97;;;3.71;81.08
69784;BME280;57054;51.978;4.498;2023-04-04T02:45:13;103032.47;;;3.71;81.37
69784;BME280;57054;51.978;4.498;2023-04-04T02:47:40;103031.56;;;3.69;81.42
69784;BME280;57054;51.978;4.498;2023-04-04T02:50:07;103022.94;;;3.68;81.48
69784;BME280;57054;51.978;4.498;2023-04-04T02:52:33;103014.28;;;3.68;81.53
69784;BME280;57054;51.978;4.498;2023-04-04T02:54:58;103013.38;;;3.67;81.58
69784;BME280;57054;51.978;4.498;2023-04-04T02:57:23;103004.69;;;3.65;81.62
69784;BME280;57054;51.978;4.498;2023-04-04T02:59:49;103008.16;;;3.64;81.79
69784;BME280;57054;51.978;4.498;2023-04-04T03:02:14;103006.38;;;3.63;81.87
69784;BME280;57054;51.978;4.498;2023-04-04T03:04:40;102998.56;;;3.61;82.01
69784;BME280;57054;51.978;4.498;2023-04-04T03:07:05;102991.66;;;3.60;81.98
69784;BME280;57054;51.978;4.498;2023-04-04T03:09:31;103001.13;;;3.60;81.93
69784;BME280;57054;51.978;4.498;2023-04-04T03:11:56;103002.78;;;3.56;81.92
69784;BME280;57054;51.978;4.498;2023-04-04T03:14:21;103002.75;;;3.55;81.91
69784;BME280;57054;51.978;4.498;2023-04-04T03:16:47;103003.53;;;3.52;81.84
69784;BME280;57054;51.978;4.498;2023-04-04T03:19:16;103003.47;;;3.49;81.74
69784;BME280;57054;51.978;4.498;2023-04-04T03:21:41;103007.75;;;3.47;81.48
69784;BME280;57054;51.978;4.498;2023-04-04T03:24:07;103011.97;;;3.43;81.33
69784;BME280;57054;51.978;4.498;2023-04-04T03:26:32;103012.75;;;3.39;81.51
69784;BME280;57054;51.978;4.498;2023-04-04T03:28:58;103017.88;;;3.38;81.23
69784;BME280;57054;51.978;4.498;2023-04-04T03:31:23;103018.66;;;3.34;81.14
69784;BME280;57054;51.978;4.498;2023-04-04T03:33:48;103022.03;;;3.30;81.13
69784;BME280;57054;51.978;4.498;2023-04-04T03:36:14;103020.16;;;3.25;81.13
69784;BME280;57054;51.978;4.498;2023-04-04T03:38:40;103020.97;;;3.23;81.00
69784;BME280;57054;51.978;4.498;2023-04-04T03:41:06;103031.25;;;3.20;80.88
69784;BME280;57054;51.978;4.498;2023-04-04T03:43:32;103032.03;;;3.16;80.86
69784;BME280;57054;51.978;4.498;2023-04-04T03:46:01;103028.47;;;3.12;80.76
69784;BME280;57054;51.978;4.498;2023-04-04T03:48:28;103026.69;;;3.10;81.03
69784;BME280;57054;51.978;4.498;2023-04-04T03:50:53;103027.53;;;3.08;80.76
69784;BME280;57054;51.978;4.498;2023-04-04T03:53:19;103014.50;;;3.05;80.87
69784;BME280;57054;51.978;4.498;2023-04-04T03:55:45;103020.47;;;3.03;80.68
69784;BME280;57054;51.978;4.498;2023-04-04T03:58:10;103021.28;;;3.00;80.82
69784;BME280;57054;51.978;4.498;2023-04-04T04:00:36;103016.84;;;2.96;80.73
69784;BME280;57054;51.978;4.498;2023-04-04T04:03:01;103016.81;;;2.95;80.74
69784;BME280;57054;51.978;4.498;2023-04-04T04:05:26;103013.31;;;2.93;81.16
69784;BME280;57054;51.978;4.498;2023-04-04T04:07:52;103019.28;;;2.90;80.73
69784;BME280;57054;51.978;4.498;2023-04-04T04:10:17;103014.06;;;2.88;80.96
69784;BME280;57054;51.978;4.498;2023-04-04T04:12:43;103015.75;;;2.86;81.01
69784;BME280;57054;51.978;4.498;2023-04-04T04:15:08;103018.28;;;2.85;81.05
69784;BME280;57054;51.978;4.498;2023-04-04T04:17:38;103016.56;;;2.84;81.27
69784;BME280;57054;51.978;4.498;2023-04-04T04:20:05;103027.72;;;2.83;81.15
69784;BME280;57054;51.978;4.498;2023-04-04T04:22:31;103015.63;;;2.82;81.42
69784;BME280;57054;51.978;4.498;2023-04-04T04:24:56;103018.19;;;2.80;81.51
69784;BME280;57054;51.978;4.498;2023-04-04T04:27:21;103017.28;;;2.80;81.63
69784;BME280;57054;51.978;4.498;2023-04-04T04:29:48;103021.56;;;2.78;81.61
69784;BME280;57054;51.978;4.498;2023-04-04T04:32:17;103012.91;;;2.77;81.71
69784;BME280;57054;51.978;4.498;2023-04-04T04:34:42;103016.34;;;2.76;81.48
69784;BME280;57054;51.978;4.498;2023-04-04T04:37:08;103016.28;;;2.75;81.83
69784;BME280;57054;51.978;4.498;2023-04-04T04:39:33;103022.31;;;2.74;81.82
69784;BME280;57054;51.978;4.498;2023-04-04T04:42:00;103024.84;;;2.72;81.85
69784;BME280;57054;51.978;4.498;2023-04-04T04:44:25;103022.22;;;2.71;81.87
69784;BME280;57054;51.978;4.498;2023-04-04T04:46:51;103027.34;;;2.67;81.80
69784;BME280;57054;51.978;4.498;2023-04-04T04:49:16;103029.88;;;2.66;81.93
69784;BME280;57054;51.978;4.498;2023-04-04T04:51:41;103016.84;;;2.63;81.72
69784;BME280;57054;51.978;4.498;2023-04-04T04:54:07;103032.31;;;2.61;81.75
69784;BME280;57054;51.978;4.498;2023-04-04T04:56:32;103038.34;;;2.60;81.90
69784;BME280;57054;51.978;4.498;2023-04-04T04:58:58;103028.81;;;2.59;81.91
69784;BME280;57054;51.978;4.498;2023-04-04T05:01:23;103031.31;;;2.56;81.97
69784;BME280;57054;51.978;4.498;2023-04-04T05:03:49;103035.63;;;2.56;81.91
69784;BME280;57054;51.978;4.498;2023-04-04T05:06:14;103025.19;;;2.53;81.94
69784;BME280;57054;51.978;4.498;2023-04-04T05:08:40;103021.81;;;2.55;82.15
69784;BME280;57054;51.978;4.498;2023-04-04T05:11:05;103022.69;;;2.56;82.27
69784;BME280;57054;51.978;4.498;2023-04-04T05:13:31;103031.25;;;2.55;82.30
69784;BME280;57054;51.978;4.498;2023-04-04T05:15:56;103026.91;;;2.52;82.18
69784;BME280;57054;51.978;4.498;2023-04-04T05:18:22;103031.16;;;2.50;82.34
69784;BME280;57054;51.978;4.498;2023-04-04T05:20:53;103038.00;;;2.48;82.47
69784;BME280;57054;51.978;4.498;2023-04-04T05:23:19;103037.09;;;2.46;82.63
69784;BME280;57054;51.978;4.498;2023-04-04T05:25:47;103042.16;;;2.43;82.64
69784;BME280;57054;51.978;4.498;2023-04-04T05:28:13;103046.47;;;2.42;82.69
69784;BME280;57054;51.978;4.498;2023-04-04T05:30:43;103038.66;;;2.41;82.69
69784;BME280;57054;51.978;4.498;2023-04-04T05:33:19;103047.22;;;2.40;82.90
69784;BME280;57054;51.978;4.498;2023-04-04T05:35:44;103052.34;;;2.38;83.09
69784;BME280;57054;51.978;4.498;2023-04-04T05:38:10;103048.91;;;2.38;83.14
69784;BME280;57054;51.978;4.498;2023-04-04T05:40:35;103052.34;;;2.37;83.18
69784;BME280;57054;51.978;4.498;2023-04-04T05:43:06;103040.22;;;2.36;83.22
69784;BME280;57054;51.978;4.498;2023-04-04T05:45:53;103047.06;;;2.34;83.33
69784;BME280;57054;51.978;4.498;2023-04-04T05:48:29;103041.03;;;2.33;83.35
69784;BME280;57054;51.978;4.498;2023-04-04T05:50:54;103047.06;;;2.34;83.48
69784;BME280;57054;51.978;4.498;2023-04-04T05:53:20;103046.22;;;2.33;83.75
69784;BME280;57054;51.978;4.498;2023-04-04T05:55:45;103047.06;;;2.34;83.75
69784;BME280;57054;51.978;4.498;2023-04-04T05:58:11;103047.03;;;2.32;83.89
69784;BME280;57054;51.978;4.498;2023-04-04T06:00:36;103044.44;;;2.32;84.00
69784;BME280;57054;51.978;4.498;2023-04-04T06:03:02;103045.31;;;2.33;84.13
69784;BME280;57054;51.978;4.498;2023-04-04T06:05:27;103041.03;;;2.33;84.18
69784;BME280;57054;51.978;4.498;2023-04-04T06:07:53;103042.78;;;2.34;84.42
69784;BME280;57054;51.978;4.498;2023-04-04T06:10:18;103049.72;;;2.35;84.37
69784;BME280;57054;51.978;4.498;2023-04-04T06:12:44;103048.84;;;2.36;84.31
69784;BME280;57054;51.978;4.498;2023-04-04T06:15:09;103050.63;;;2.37;84.20
69784;BME280;57054;51.978;4.498;2023-04-04T06:17:35;103037.69;;;2.37;84.52
69784;BME280;57054;51.978;4.498;2023-04-04T06:20:00;103040.34;;;2.39;84.67
69784;BME280;57054;51.978;4.498;2023-04-04T06:22:26;103042.13;;;2.41;84.66
69784;BME280;57054;51.978;4.498;2023-04-04T06:24:51;103042.16;;;2.43;84.88
69784;BME280;57054;51.978;4.498;2023-04-04T06:27:16;103047.34;;;2.43;85.07
69784;BME280;57054;51.978;4.498;2023-04-04T06:29:42;103044.75;;;2.43;85.23
69784;BME280;57054;51.978;4.498;2023-04-04T06:32:08;103050.84;;;2.45;85.20
69784;BME280;57054;51.978;4.498;2023-04-04T06:34:33;103050.88;;;2.46;85.24
69784;BME280;57054;51.978;4.498;2023-04-04T06:36:59;103054.38;;;2.48;85.61
69784;BME280;57054;51.978;4.498;2023-04-04T06:39:24;103057.06;;;2.52;85.67
69784;BME280;57054;51.978;4.498;2023-04-04T06:41:49;103045.00;;;2.52;85.97
69784;BME280;57054;51.978;4.498;2023-04-04T06:44:15;103048.50;;;2.54;86.13
69784;BME280;57054;51.978;4.498;2023-04-04T06:46:40;103039.97;;;2.57;86.32
69784;BME280;57054;51.978;4.498;2023-04-04T06:49:06;103041.75;;;2.59;86.57
69784;BME280;57054;51.978;4.498;2023-04-04T06:51:34;103045.31;;;2.63;86.67
69784;BME280;57054;51.978;4.498;2023-04-04T06:54:00;103036.72;;;2.64;87.11
69784;BME280;57054;51.978;4.498;2023-04-04T06:56:26;103038.50;;;2.66;87.17
69784;BME280;57054;51.978;4.498;2023-04-04T06:58:52;103043.78;;;2.69;87.59
69784;BME280;57054;51.978;4.498;2023-04-04T07:01:17;103045.59;;;2.74;87.85
69784;BME280;57054;51.978;4.498;2023-04-04T07:03:43;103049.09;;;2.76;88.01
69784;BME280;57054;51.978;4.498;2023-04-04T07:06:09;103052.66;;;2.79;88.23
69784;BME280;57054;51.978;4.498;2023-04-04T07:08:35;103048.38;;;2.81;88.57
69784;BME280;57054;51.978;4.498;2023-04-04T07:11:01;103058.84;;;2.84;88.93
69784;BME280;57054;51.978;4.498;2023-04-04T07:13:26;103060.63;;;2.87;88.90
69784;BME280;57054;51.978;4.498;2023-04-04T07:15:52;103053.75;;;2.89;89.28
69784;BME280;57054;51.978;4.498;2023-04-04T07:18:18;103065.06;;;2.93;89.36
69784;BME280;57054;51.978;4.498;2023-04-04T07:20:46;103062.56;;;2.96;89.57
69784;BME280;57054;51.978;4.498;2023-04-04T07:23:12;103061.78;;;2.98;89.64
69784;BME280;57054;51.978;4.498;2023-04-04T07:25:39;103054.94;;;3.00;89.96
69784;BME280;57054;51.978;4.498;2023-04-04T07:28:05;103056.69;;;3.01;89.79
69784;BME280;57054;51.978;4.498;2023-04-04T07:30:31;103064.53;;;3.04;89.94
69784;BME280;57054;51.978;4.498;2023-04-04T07:33:01;103068.09;;;3.08;90.16
69784;BME280;57054;51.978;4.498;2023-04-04T07:35:27;103069.81;;;3.09;90.27
69784;BME280;57054;51.978;4.498;2023-04-04T07:37:53;103058.63;;;3.10;90.45
69784;BME280;57054;51.978;4.498;2023-04-04T07:40:19;103059.63;;;3.15;90.52
69784;BME280;57054;51.978;4.498;2023-04-04T07:42:45;103057.09;;;3.18;90.83
69784;BME280;57054;51.978;4.498;2023-04-04T07:45:12;103066.72;;;3.22;90.84
69784;BME280;57054;51.978;4.498;2023-04-04T07:47:42;103059.88;;;3.24;90.71
69784;BME280;57054;51.978;4.498;2023-04-04T07:50:08;103064.19;;;3.25;90.78
69784;BME280;57054;51.978;4.498;2023-04-04T07:52:33;103061.69;;;3.29;90.60
69784;BME280;57054;51.978;4.498;2023-04-04T07:54:59;103061.78;;;3.32;90.39
69784;BME280;57054;51.978;4.498;2023-04-04T07:57:25;103060.09;;;3.34;90.33
69784;BME280;57054;51.978;4.498;2023-04-04T07:59:51;103055.78;;;3.34;89.71
69784;BME280;57054;51.978;4.498;2023-04-04T08:02:16;103054.09;;;3.35;89.34
69784;BME280;57054;51.978;4.498;2023-04-04T08:04:42;103060.25;;;3.40;89.25
69784;BME280;57054;51.978;4.498;2023-04-04T08:07:07;103053.38;;;3.42;88.75
69784;BME280;57054;51.978;4.498;2023-04-04T08:09:32;103049.97;;;3.43;88.45
69784;BME280;57054;51.978;4.498;2023-04-04T08:12:00;103043.97;;;3.45;87.22
69784;BME280;57054;51.978;4.498;2023-04-04T08:14:27;103044.06;;;3.49;87.12
69784;BME280;57054;51.978;4.498;2023-04-04T08:16:52;103039.00;;;3.53;87.39
69784;BME280;57054;51.978;4.498;2023-04-04T08:19:18;103047.63;;;3.54;86.04
69784;BME280;57054;51.978;4.498;2023-04-04T08:21:44;103041.63;;;3.55;85.32
69784;BME280;57054;51.978;4.498;2023-04-04T08:24:11;103038.22;;;3.57;84.72
69784;BME280;57054;51.978;4.498;2023-04-04T08:26:36;103034.84;;;3.61;85.01
69784;BME280;57054;51.978;4.498;2023-04-04T08:29:01;103047.88;;;3.64;84.98
69784;BME280;57054;51.978;4.498;2023-04-04T08:31:27;103041.84;;;3.65;84.20
69784;BME280;57054;51.978;4.498;2023-04-04T08:33:54;103047.94;;;3.66;82.57
69784;BME280;57054;51.978;4.498;2023-04-04T08:36:19;103044.56;;;3.70;83.35
69784;BME280;57054;51.978;4.498;2023-04-04T08:38:45;103045.50;;;3.74;83.21
69784;BME280;57054;51.978;4.498;2023-04-04T08:41:11;103041.19;;;3.74;82.70
69784;BME280;57054;51.978;4.498;2023-04-04T08:43:37;103042.13;;;3.78;82.54
69784;BME280;57054;51.978;4.498;2023-04-04T08:46:07;103031.81;;;3.79;81.80
69784;BME280;57054;51.978;4.498;2023-04-04T08:48:34;103031.81;;;3.79;78.82
69784;BME280;57054;51.978;4.498;2023-04-04T08:51:02;103034.47;;;3.82;78.88
69784;BME280;57054;51.978;4.498;2023-04-04T08:53:29;103038.88;;;3.87;79.78
69784;BME280;57054;51.978;4.498;2023-04-04T08:55:58;103024.25;;;3.89;78.72
69784;BME280;57054;51.978;4.498;2023-04-04T08:58:24;103042.38;;;3.89;74.36
69784;BME280;57054;51.978;4.498;2023-04-04T09:00:54;103045.06;;;3.92;75.08
69784;BME280;57054;51.978;4.498;2023-04-04T09:03:24;103038.22;;;3.95;73.96
69784;BME280;57054;51.978;4.498;2023-04-04T09:05:52;103031.34;;;3.97;73.19
69784;BME280;57054;51.978;4.498;2023-04-04T09:08:19;103039.22;;;4.02;73.87
69784;BME280;57054;51.978;4.498;2023-04-04T09:10:45;103035.81;;;4.04;72.35
69784;BME280;57054;51.978;4.498;2023-04-04T09:13:12;103035.00;;;4.07;71.56
69784;BME280;57054;51.978;4.498;2023-04-04T09:15:41;103032.50;;;4.10;70.45
69784;BME280;57054;51.978;4.498;2023-04-04T09:18:07;103038.66;;;4.15;70.36
69784;BME280;57054;51.978;4.498;2023-04-04T09:23:15;103037.06;;;4.23;69.79
69784;BME280;57054;51.978;4.498;2023-04-04T09:25:45;103035.38;;;4.26;65.70
69784;BME280;57054;51.978;4.498;2023-04-04T09:28:14;103033.78;;;4.31;68.13
69784;BME280;57054;51.978;4.498;2023-04-04T09:30:40;103024.41;;;4.37;69.24
69784;BME280;57054;51.978;4.498;2023-04-04T09:33:08;103031.44;;;4.43;68.38
69784;BME280;57054;51.978;4.498;2023-04-04T09:35:35;103032.47;;;4.51;69.27
69784;BME280;57054;51.978;4.498;2023-04-04T09:38:02;103030.81;;;4.56;68.40
69784;BME280;57054;51.978;4.498;2023-04-04T09:40:28;103034.38;;;4.61;66.85
69784;BME280;57054;51.978;4.498;2023-04-04T09:42:54;103034.47;;;4.66;67.46
69784;BME280;57054;51.978;4.498;2023-04-04T09:45:23;103038.91;;;4.72;67.65
69784;BME280;57054;51.978;4.498;2023-04-04T09:47:50;103039.84;;;4.75;68.17
69784;BME280;57054;51.978;4.498;2023-04-04T09:50:21;103034.72;;;4.78;68.73
69784;BME280;57054;51.978;4.498;2023-04-04T09:52:48;103039.09;;;4.81;68.13
69784;BME280;57054;51.978;4.498;2023-04-04T09:55:16;103033.06;;;4.84;67.78
69784;BME280;57054;51.978;4.498;2023-04-04T09:57:43;103034.88;;;4.88;66.87
69784;BME280;57054;51.978;4.498;2023-04-04T10:00:11;103033.22;;;4.91;67.19
69784;BME280;57054;51.978;4.498;2023-04-04T10:02:38;103028.97;;;4.95;66.47
69784;BME280;57054;51.978;4.498;2023-04-04T10:05:08;103031.56;;;4.96;67.88
69784;BME280;57054;51.978;4.498;2023-04-04T10:07:38;103029.03;;;4.99;66.90
69784;BME280;57054;51.978;4.498;2023-04-04T10:10:05;103027.31;;;5.02;67.21
69784;BME280;57054;51.978;4.498;2023-04-04T10:12:31;103033.47;;;5.07;65.71
69784;BME280;57054;51.978;4.498;2023-04-04T10:15:01;103029.22;;;5.10;66.63
69784;BME280;57054;51.978;4.498;2023-04-04T10:17:46;103020.66;;;5.16;66.36
69784;BME280;57054;51.978;4.498;2023-04-04T10:20:12;103024.22;;;5.23;65.85
69784;BME280;57054;51.978;4.498;2023-04-04T10:22:39;103025.22;;;5.31;66.50
69784;BME280;57054;51.978;4.498;2023-04-04T10:25:05;103023.59;;;5.37;66.45
69784;BME280;57054;51.978;4.498;2023-04-04T10:27:34;103023.69;;;5.42;66.73
69784;BME280;57054;51.978;4.498;2023-04-04T10:30:02;103019.41;;;5.47;66.29
69784;BME280;57054;51.978;4.498;2023-04-04T10:35:04;103021.22;;;5.53;66.59
69784;BME280;57054;51.978;4.498;2023-04-04T10:37:36;103010.00;;;5.54;66.37
69784;BME280;57054;51.978;4.498;2023-04-04T10:42:38;103017.84;;;5.57;64.90
69784;BME280;57054;51.978;4.498;2023-04-04T10:45:06;103006.59;;;5.60;66.11
69784;BME280;57054;51.978;4.498;2023-04-04T10:47:33;103000.56;;;5.61;64.31
69784;BME280;57054;51.978;4.498;2023-04-04T10:50:00;102995.41;;;5.62;63.43
69784;BME280;57054;51.978;4.498;2023-04-04T10:52:27;102996.28;;;5.64;65.15
69784;BME280;57054;51.978;4.498;2023-04-04T10:55:00;102994.59;;;5.68;65.15
69784;BME280;57054;51.978;4.498;2023-04-04T10:57:33;102997.22;;;5.71;64.37
69784;BME280;57054;51.978;4.498;2023-04-04T11:00:09;102989.53;;;5.77;64.86
69784;BME280;57054;51.978;4.498;2023-04-04T11:05:25;102990.47;;;5.82;62.38
69784;BME280;57054;51.978;4.498;2023-04-04T11:08:03;102974.88;;;5.82;61.44
69784;BME280;57054;51.978;4.498;2023-04-04T11:10:34;102976.69;;;5.88;62.83
69784;BME280;57054;51.978;4.498;2023-04-04T11:15:56;102975.13;;;6.01;62.06
69784;BME280;57054;51.978;4.498;2023-04-04T11:21:05;102967.38;;;6.05;63.16
69784;BME280;57054;51.978;4.498;2023-04-04T11:26:12;102954.41;;;6.08;63.34
69784;BME280;57054;51.978;4.498;2023-04-04T11:34:04;102954.47;;;6.14;65.56
69784;BME280;57054;51.978;4.498;2023-04-04T11:39:46;102945.06;;;6.24;65.54
69784;BME280;57054;51.978;4.498;2023-04-04T11:42:12;102950.34;;;6.32;64.78
69784;BME280;57054;51.978;4.498;2023-04-04T11:45:01;102946.03;;;6.36;64.23
69784;BME280;57054;51.978;4.498;2023-04-04T11:47:27;102949.56;;;6.41;65.03
69784;BME280;57054;51.978;4.498;2023-04-04T11:49:55;102943.50;;;6.42;63.12
69784;BME280;57054;51.978;4.498;2023-04-04T11:52:21;102936.63;;;6.48;63.71
69784;BME280;57054;51.978;4.498;2023-04-04T11:54:48;102934.06;;;6.53;62.83
69784;BME280;57054;51.978;4.498;2023-04-04T11:57:16;102934.13;;;6.59;62.75
69784;BME280;57054;51.978;4.498;2023-04-04T11:59:44;102929.81;;;6.63;61.69
69784;BME280;57054;51.978;4.498;2023-04-04T12:02:10;102922.91;;;6.66;62.05
69784;BME280;57054;51.978;4.498;2023-04-04T12:04:40;102918.63;;;6.70;62.74
69784;BME280;57054;51.978;4.498;2023-04-04T12:07:08;102922.13;;;6.75;63.96
69784;BME280;57054;51.978;4.498;2023-04-04T12:09:37;102924.75;;;6.80;63.25
69784;BME280;57054;51.978;4.498;2023-04-04T12:12:04;102923.94;;;6.85;63.01
69784;BME280;57054;51.978;4.498;2023-04-04T12:14:34;102920.47;;;6.85;62.08
69784;BME280;57054;51.978;4.498;2023-04-04T12:17:01;102918.72;;;6.82;58.45
69784;BME280;57054;51.978;4.498;2023-04-04T12:19:27;102916.09;;;6.84;60.80
69784;BME280;57054;51.978;4.498;2023-04-04T12:21:53;102910.94;;;6.88;62.62
69784;BME280;57054;51.978;4.498;2023-04-04T12:24:21;102915.34;;;6.96;64.43
69784;BME280;57054;51.978;4.498;2023-04-04T12:26:49;102909.31;;;7.01;63.76
69784;BME280;57054;51.978;4.498;2023-04-04T12:29:16;102913.66;;;7.04;63.30
69784;BME280;57054;51.978;4.498;2023-04-04T12:31:44;102899.78;;;7.06;62.22
69784;BME280;57054;51.978;4.498;2023-04-04T12:34:41;102897.16;;;7.05;60.99
69784;BME280;57054;51.978;4.498;2023-04-04T12:37:03;102892.84;;;7.07;62.15
69784;BME280;57054;51.978;4.498;2023-04-04T12:39:33;102899.81;;;7.09;62.89
69784;BME280;57054;51.978;4.498;2023-04-04T12:42:02;102889.41;;;7.14;63.82
69784;BME280;57054;51.978;4.498;2023-04-04T12:44:30;102889.47;;;7.19;63.99
69784;BME280;57054;51.978;4.498;2023-04-04T12:46:57;102890.34;;;7.24;64.51
69784;BME280;57054;51.978;4.498;2023-04-04T12:49:45;102889.47;;;7.23;62.02
69784;BME280;57054;51.978;4.498;2023-04-04T12:52:20;102876.47;;;7.26;64.25
69784;BME280;57054;51.978;4.498;2023-04-04T12:54:47;102873.88;;;7.31;65.20
69784;BME280;57054;51.978;4.498;2023-04-04T12:57:21;102872.16;;;7.36;63.52
69784;BME280;57054;51.978;4.498;2023-04-04T12:59:48;102873.06;;;7.40;60.40
69784;BME280;57054;51.978;4.498;2023-04-04T13:02:19;102860.06;;;7.44;63.11
69784;BME280;57054;51.978;4.498;2023-04-04T13:04:46;102863.53;;;7.46;63.54
69784;BME280;57054;51.978;4.498;2023-04-04T13:10:00;102857.44;;;7.47;60.69
69784;BME280;57054;51.978;4.498;2023-04-04T13:12:51;102844.44;;;7.50;62.24
69784;BME280;57054;51.978;4.498;2023-04-04T13:15:17;102839.25;;;7.55;62.85
69784;BME280;57054;51.978;4.498;2023-04-04T13:17:45;102840.13;;;7.59;62.99
69784;BME280;57054;51.978;4.498;2023-04-04T13:20:12;102841.00;;;7.64;62.52
69784;BME280;57054;51.978;4.498;2023-04-04T13:22:39;102840.13;;;7.65;62.76
69784;BME280;57054;51.978;4.498;2023-04-04T13:25:05;102842.75;;;7.66;61.48
69784;BME280;57054;51.978;4.498;2023-04-04T13:27:32;102827.13;;;7.69;62.08
69784;BME280;57054;51.978;4.498;2023-04-04T13:29:58;102832.34;;;7.73;62.51
69784;BME280;57054;51.978;4.498;2023-04-04T13:32:23;102827.13;;;7.76;62.21
69784;BME280;57054;51.978;4.498;2023-04-04T13:34:48;102828.00;;;7.76;61.06